首页
METAR-TAF:

METAR-TAF

机场 :

陶巴特, 圣保罗州, 巴西

纬度: 23-02-26S, 经度: 45-31-00W, 海拔: 577米

当前天气观测

该预报发布于1小时和11分钟前的11:00 UTC
风速1节,风向东转东南
温度 11°C
湿度 94%
气压 1026 hPa
能見度: 9000

METAR: SBTA 231100Z 11001KT 9000 NSC 11/10 Q1026

时间: 09:11 (12:11 UTC)


TAF: 丢失

超过4000个机场的气象观测和天气预报(METAR&TAF报告)。

可查询的气象台以黄色和红色小点在地图上表示。

将鼠标移到小点上方,可查看气象台名称。

然后点击查看天气观测和预报。

如需切换地图:点击带黑十字的绿色按钮放大地图;点击带横线的绿色按钮缩小地图;或者点击绿色箭头查看邻近地区的地图。


METAR-TAF: